createdAt,value
2018-11-28T00:00:38.777Z,716.22
2018-11-28T00:01:39.242Z,716.18
2018-11-28T00:02:39.707Z,716.22
2018-11-28T00:03:40.173Z,716.24
2018-11-28T00:04:40.639Z,716.18
2018-11-28T00:05:41.102Z,716.21
2018-11-28T00:06:41.566Z,716.18
2018-11-28T00:07:42.036Z,716.18
2018-11-28T00:08:42.497Z,716.20
2018-11-28T00:09:42.960Z,716.18
2018-11-28T00:10:43.429Z,716.16
2018-11-28T00:11:43.938Z,716.23
2018-11-28T00:12:44.356Z,716.20
2018-11-28T00:13:44.818Z,716.20
2018-11-28T00:14:45.284Z,716.26
2018-11-28T00:15:45.748Z,716.25
2018-11-28T00:16:46.217Z,716.29
2018-11-28T00:17:46.676Z,716.24
2018-11-28T00:18:47.143Z,716.20
2018-11-28T00:19:47.607Z,716.22
2018-11-28T00:20:48.071Z,716.21
2018-11-28T00:21:48.536Z,716.13
2018-11-28T00:22:49.047Z,716.15
2018-11-28T00:23:49.464Z,716.18
2018-11-28T00:24:49.928Z,716.21
2018-11-28T00:25:50.392Z,716.22
2018-11-28T00:26:50.859Z,716.23
2018-11-28T00:27:51.322Z,716.24
2018-11-28T00:28:51.785Z,716.27
2018-11-28T00:29:52.254Z,716.21
2018-11-28T00:30:52.717Z,716.21
2018-11-28T00:31:53.182Z,716.17
2018-11-28T00:32:53.645Z,716.24
2018-11-28T00:33:54.107Z,716.22
2018-11-28T00:34:54.572Z,716.16
2018-11-28T00:35:55.036Z,716.19
2018-11-28T00:36:55.500Z,716.23
2018-11-28T00:37:55.965Z,716.26
2018-11-28T00:38:56.428Z,716.25
2018-11-28T00:39:56.897Z,716.28
2018-11-28T00:40:57.359Z,716.30
2018-11-28T00:41:57.821Z,716.32
2018-11-28T00:42:58.284Z,716.28
2018-11-28T00:43:58.751Z,716.36
2018-11-28T00:44:59.214Z,716.36
2018-11-28T00:45:59.679Z,716.36
2018-11-28T00:47:00.144Z,716.41
2018-11-28T00:48:00.607Z,716.37
2018-11-28T00:49:01.080Z,716.34
2018-11-28T00:50:01.538Z,716.39
2018-11-28T00:51:02.000Z,716.37
2018-11-28T00:52:02.463Z,716.34
2018-11-28T00:53:02.927Z,716.34
2018-11-28T00:54:03.390Z,716.38
2018-11-28T00:55:03.856Z,716.39
2018-11-28T00:56:04.348Z,716.46
2018-11-28T00:57:04.781Z,716.41
2018-11-28T00:58:05.248Z,716.46
2018-11-28T00:59:05.712Z,716.52
2018-11-28T01:00:06.175Z,716.44
2018-11-28T01:01:06.640Z,716.48
2018-11-28T01:02:07.104Z,716.49
2018-11-28T01:03:07.566Z,716.47
2018-11-28T01:04:08.030Z,716.53
2018-11-28T01:05:08.496Z,716.51
2018-11-28T01:06:08.962Z,716.50
2018-11-28T01:07:09.424Z,716.56
2018-11-28T01:08:09.893Z,716.52
2018-11-28T01:09:10.351Z,716.57
2018-11-28T01:10:10.814Z,716.54
2018-11-28T01:11:11.276Z,716.67
2018-11-28T01:12:11.743Z,716.60
2018-11-28T01:13:12.206Z,716.65
2018-11-28T01:14:12.668Z,716.65
2018-11-28T01:15:13.134Z,716.66
2018-11-28T01:16:13.596Z,716.62
2018-11-28T01:17:14.061Z,716.58
2018-11-28T01:18:14.525Z,716.58
2018-11-28T01:19:18.446Z,716.59
2018-11-28T01:20:15.453Z,716.63
2018-11-28T01:21:15.918Z,716.57
2018-11-28T01:22:16.379Z,716.63
2018-11-28T01:23:16.850Z,716.65
2018-11-28T01:24:17.307Z,716.65
2018-11-28T01:25:17.773Z,716.63
2018-11-28T01:26:18.237Z,716.61
2018-11-28T01:27:18.699Z,716.65
2018-11-28T01:28:19.161Z,716.62
2018-11-28T01:29:19.626Z,716.63
2018-11-28T01:30:20.107Z,716.70
2018-11-28T01:31:20.554Z,716.58
2018-11-28T01:32:21.016Z,716.60
2018-11-28T01:33:21.480Z,716.61
2018-11-28T01:34:21.948Z,716.63
2018-11-28T01:35:22.410Z,716.66
2018-11-28T01:36:22.873Z,716.65
2018-11-28T01:37:23.334Z,716.61
2018-11-28T01:38:23.809Z,716.64
2018-11-28T01:39:24.264Z,716.56
2018-11-28T01:40:24.754Z,716.61
2018-11-28T01:41:25.191Z,716.64
2018-11-28T01:42:25.656Z,716.65
2018-11-28T01:43:26.117Z,716.72
2018-11-28T01:44:26.585Z,716.68
2018-11-28T01:45:27.050Z,716.67
2018-11-28T01:46:27.508Z,716.69
2018-11-28T01:47:27.972Z,716.68
2018-11-28T01:48:28.436Z,716.71
2018-11-28T01:49:28.897Z,716.69
2018-11-28T01:50:29.362Z,716.70
2018-11-28T01:51:29.831Z,716.72
2018-11-28T01:52:30.289Z,716.65
2018-11-28T01:53:30.753Z,716.70
2018-11-28T01:54:31.215Z,716.69
2018-11-28T01:55:31.680Z,716.71
2018-11-28T01:56:32.144Z,716.73
2018-11-28T01:57:32.607Z,716.73
2018-11-28T01:58:33.073Z,716.73
2018-11-28T01:59:33.537Z,716.80
2018-11-28T02:00:33.997Z,716.70
2018-11-28T02:01:34.460Z,716.68
2018-11-28T02:02:34.925Z,716.72
2018-11-28T02:03:35.390Z,716.71
2018-11-28T02:04:35.849Z,716.68
2018-11-28T02:05:36.311Z,716.65
2018-11-28T02:06:36.779Z,716.71
2018-11-28T02:07:37.241Z,716.69
2018-11-28T02:08:37.713Z,716.66
2018-11-28T02:09:38.167Z,716.67
2018-11-28T02:10:38.632Z,716.66
2018-11-28T02:11:39.094Z,716.66
2018-11-28T02:12:39.558Z,716.63
2018-11-28T02:13:40.019Z,716.60
2018-11-28T02:14:40.482Z,716.67
2018-11-28T02:15:40.948Z,716.63
2018-11-28T02:16:41.411Z,716.61
2018-11-28T02:17:41.872Z,716.61
2018-11-28T02:18:42.336Z,716.63
2018-11-28T02:19:42.800Z,716.61
2018-11-28T02:20:43.264Z,716.62
2018-11-28T02:21:43.733Z,716.60
2018-11-28T02:22:44.193Z,716.67
2018-11-28T02:23:44.653Z,716.65
2018-11-28T02:24:45.116Z,716.60
2018-11-28T02:25:45.579Z,716.64
2018-11-28T02:26:46.043Z,716.65
2018-11-28T02:27:46.507Z,716.70
2018-11-28T02:28:46.971Z,716.66
2018-11-28T02:29:47.450Z,716.67
2018-11-28T02:30:47.951Z,716.71
2018-11-28T02:31:48.438Z,716.69
2018-11-28T02:32:48.823Z,716.73
2018-11-28T02:33:49.285Z,716.73
2018-11-28T02:34:49.753Z,716.70
2018-11-28T02:35:50.211Z,716.77
2018-11-28T02:36:50.678Z,716.77
2018-11-28T02:37:51.138Z,716.75
2018-11-28T02:38:51.602Z,716.76
2018-11-28T02:39:52.068Z,716.76
2018-11-28T02:40:52.525Z,716.79
2018-11-28T02:41:52.991Z,716.74
2018-11-28T02:42:53.452Z,716.85
2018-11-28T02:43:53.916Z,716.79
2018-11-28T02:44:54.380Z,716.79
2018-11-28T02:45:54.846Z,716.82
2018-11-28T02:46:55.304Z,716.80
2018-11-28T02:47:55.772Z,716.83
2018-11-28T02:48:56.232Z,716.80
2018-11-28T02:49:56.695Z,716.77
2018-11-28T02:50:57.160Z,716.76
2018-11-28T02:51:57.624Z,716.78
2018-11-28T02:52:58.085Z,716.77
2018-11-28T02:53:58.545Z,716.80
2018-11-28T02:54:59.012Z,716.80
2018-11-28T02:55:59.472Z,716.76
2018-11-28T02:56:59.935Z,716.79
2018-11-28T02:58:00.400Z,716.83
2018-11-28T02:59:00.879Z,716.84
2018-11-28T03:00:01.330Z,716.85
2018-11-28T03:01:01.794Z,716.82
2018-11-28T03:02:02.302Z,716.81
2018-11-28T03:03:02.714Z,716.81
2018-11-28T03:04:03.176Z,716.88
2018-11-28T03:05:03.640Z,716.83
2018-11-28T03:06:04.102Z,716.86
2018-11-28T03:07:04.565Z,716.80
2018-11-28T03:08:05.027Z,716.80
2018-11-28T03:09:05.492Z,716.87
2018-11-28T03:10:05.953Z,716.87
2018-11-28T03:11:06.416Z,716.87
2018-11-28T03:12:06.881Z,716.80
2018-11-28T03:13:07.342Z,716.86
2018-11-28T03:14:07.807Z,716.83
2018-11-28T03:15:08.268Z,716.86
2018-11-28T03:16:08.730Z,716.89
2018-11-28T03:17:09.199Z,716.90
2018-11-28T03:18:09.659Z,716.87
2018-11-28T03:19:10.118Z,716.85
2018-11-28T03:20:10.584Z,716.93
2018-11-28T03:21:11.045Z,716.89
2018-11-28T03:22:11.511Z,716.89
2018-11-28T03:23:11.969Z,716.92
2018-11-28T03:24:12.434Z,716.87
2018-11-28T03:25:12.896Z,716.92
2018-11-28T03:26:13.357Z,716.90
2018-11-28T03:27:13.823Z,716.87
2018-11-28T03:28:14.282Z,716.91
2018-11-28T03:29:14.747Z,716.95
2018-11-28T03:30:15.209Z,716.92
2018-11-28T03:31:15.672Z,716.97
2018-11-28T03:32:16.135Z,716.91
2018-11-28T03:33:16.610Z,716.91
2018-11-28T03:34:17.059Z,716.93
2018-11-28T03:35:17.523Z,716.94
2018-11-28T03:36:17.987Z,716.95
2018-11-28T03:37:18.448Z,716.95
2018-11-28T03:38:18.909Z,716.91
2018-11-28T03:39:19.372Z,716.94
2018-11-28T03:40:19.834Z,716.95
2018-11-28T03:41:20.298Z,716.97
2018-11-28T03:42:20.760Z,717.00
2018-11-28T03:43:21.221Z,717.01
2018-11-28T03:44:21.688Z,717.02
2018-11-28T03:45:22.150Z,717.03
2018-11-28T03:46:22.610Z,716.99
2018-11-28T03:47:23.073Z,717.01
2018-11-28T03:48:23.536Z,717.04
2018-11-28T03:49:24.002Z,716.99
2018-11-28T03:50:24.461Z,717.09
2018-11-28T03:51:24.923Z,717.09
2018-11-28T03:52:25.386Z,717.02
2018-11-28T03:53:25.848Z,717.04
2018-11-28T03:54:26.312Z,717.13
2018-11-28T03:55:26.775Z,717.08
2018-11-28T03:56:27.237Z,717.09
2018-11-28T03:57:27.697Z,717.13
2018-11-28T03:58:28.161Z,717.11
2018-11-28T03:59:28.622Z,717.11
2018-11-28T04:00:29.087Z,717.16
2018-11-28T04:01:29.552Z,717.11
2018-11-28T04:02:30.017Z,717.07
2018-11-28T04:03:30.471Z,717.08
2018-11-28T04:04:30.939Z,717.09
2018-11-28T04:05:31.399Z,717.14
2018-11-28T04:06:31.861Z,717.13
2018-11-28T04:07:32.321Z,717.09
2018-11-28T04:08:32.787Z,717.12
2018-11-28T04:09:33.248Z,717.05
2018-11-28T04:10:33.726Z,717.12
2018-11-28T04:11:34.178Z,717.14
2018-11-28T04:12:34.633Z,717.13
2018-11-28T04:13:35.096Z,717.11
2018-11-28T04:14:35.557Z,717.11
2018-11-28T04:15:36.020Z,717.07
2018-11-28T04:16:36.481Z,717.17
2018-11-28T04:17:36.945Z,717.12
2018-11-28T04:18:37.405Z,717.08
2018-11-28T04:19:37.868Z,717.16
2018-11-28T04:20:38.332Z,717.12
2018-11-28T04:21:38.793Z,717.12
2018-11-28T04:22:39.254Z,717.13
2018-11-28T04:23:39.718Z,717.11
2018-11-28T04:24:40.180Z,717.13
2018-11-28T04:25:40.644Z,717.11
2018-11-28T04:26:41.103Z,717.09
2018-11-28T04:27:41.654Z,717.09
2018-11-28T04:28:42.030Z,717.11
2018-11-28T04:29:42.490Z,717.11
2018-11-28T04:30:42.953Z,717.07
2018-11-28T04:31:43.417Z,717.10
2018-11-28T04:32:43.875Z,717.09
2018-11-28T04:33:44.339Z,717.12
2018-11-28T04:34:44.799Z,717.15
2018-11-28T04:35:45.262Z,717.16
2018-11-28T04:36:45.726Z,717.17
2018-11-28T04:37:46.188Z,717.22
2018-11-28T04:38:46.648Z,717.12
2018-11-28T04:39:47.118Z,717.18
2018-11-28T04:40:47.776Z,717.16
2018-11-28T04:41:48.036Z,717.18
2018-11-28T04:42:48.498Z,717.19
2018-11-28T04:43:48.962Z,717.16
2018-11-28T04:44:49.487Z,717.17
2018-11-28T04:45:49.900Z,717.13
2018-11-28T04:46:50.348Z,717.13
2018-11-28T04:47:50.806Z,717.15
2018-11-28T04:48:51.271Z,717.18
2018-11-28T04:49:51.732Z,717.17
2018-11-28T04:50:52.194Z,717.18
2018-11-28T04:51:52.656Z,717.21
2018-11-28T04:52:53.118Z,717.18
2018-11-28T04:53:53.580Z,717.21
2018-11-28T04:54:54.038Z,717.18
2018-11-28T04:55:54.503Z,717.19
2018-11-28T04:56:54.962Z,717.24
2018-11-28T04:57:55.427Z,717.21
2018-11-28T04:58:55.886Z,717.17
2018-11-28T04:59:56.355Z,717.28
2018-11-28T05:00:56.811Z,717.21
2018-11-28T05:01:57.274Z,717.21
2018-11-28T05:02:57.735Z,717.27
2018-11-28T05:03:58.197Z,717.30
2018-11-28T05:04:58.658Z,717.24
2018-11-28T05:05:59.123Z,717.28
2018-11-28T05:06:59.581Z,717.30
2018-11-28T05:08:00.093Z,717.28
2018-11-28T05:09:00.511Z,717.28
2018-11-28T05:10:00.967Z,717.28
2018-11-28T05:11:01.431Z,717.30
2018-11-28T05:12:01.892Z,717.30
2018-11-28T05:13:02.352Z,717.31
2018-11-28T05:14:02.815Z,717.29
2018-11-28T05:15:03.275Z,717.35
2018-11-28T05:16:03.737Z,717.31
2018-11-28T05:17:04.199Z,717.32
2018-11-28T05:18:04.724Z,717.32
2018-11-28T05:19:05.122Z,717.33
2018-11-28T05:20:05.585Z,717.32
2018-11-28T05:21:06.046Z,717.34
2018-11-28T05:22:06.508Z,717.32
2018-11-28T05:23:06.971Z,717.33
2018-11-28T05:24:07.431Z,717.33
2018-11-28T05:25:07.892Z,717.31
2018-11-28T05:26:08.354Z,717.34
2018-11-28T05:27:08.820Z,717.31
2018-11-28T05:28:09.276Z,717.32
2018-11-28T05:29:09.743Z,717.33
2018-11-28T05:30:10.202Z,717.39
2018-11-28T05:31:10.719Z,717.34
2018-11-28T05:32:11.126Z,717.36
2018-11-28T05:33:11.587Z,717.36
2018-11-28T05:34:12.052Z,717.45
2018-11-28T05:35:12.509Z,717.39
2018-11-28T05:36:12.974Z,717.45
2018-11-28T05:37:13.433Z,717.39
2018-11-28T05:38:13.894Z,717.48
2018-11-28T05:39:14.410Z,717.47
2018-11-28T05:40:14.819Z,717.47
2018-11-28T05:41:15.322Z,717.45
2018-11-28T05:42:15.745Z,717.50
2018-11-28T05:43:16.202Z,717.50
2018-11-28T05:44:16.664Z,717.53
2018-11-28T05:45:17.126Z,717.58
2018-11-28T05:46:17.592Z,717.53
2018-11-28T05:47:18.051Z,717.59
2018-11-28T05:48:18.512Z,717.55
2018-11-28T05:49:18.977Z,717.60
2018-11-28T05:50:19.436Z,717.61
2018-11-28T05:51:19.898Z,717.60
2018-11-28T05:52:20.358Z,717.60
2018-11-28T05:53:20.821Z,717.62
2018-11-28T05:54:21.282Z,717.66
2018-11-28T05:55:21.744Z,717.69
2018-11-28T05:56:22.207Z,717.64
2018-11-28T05:57:22.668Z,717.69
2018-11-28T05:58:23.128Z,717.65
2018-11-28T05:59:27.402Z,717.67
2018-11-28T06:00:24.110Z,717.66
2018-11-28T06:01:24.519Z,717.69
2018-11-28T06:02:24.975Z,717.63
2018-11-28T06:03:25.437Z,717.71
2018-11-28T06:04:25.898Z,717.71
2018-11-28T06:05:26.362Z,717.76
2018-11-28T06:06:26.823Z,717.81
2018-11-28T06:07:27.283Z,717.77
2018-11-28T06:08:27.745Z,717.79
2018-11-28T06:09:28.207Z,717.81
2018-11-28T06:10:28.670Z,717.84
2018-11-28T06:11:29.129Z,717.77
2018-11-28T06:12:29.590Z,717.78
2018-11-28T06:13:30.054Z,717.73
2018-11-28T06:14:30.516Z,717.75
2018-11-28T06:15:30.979Z,717.73
2018-11-28T06:16:31.439Z,717.70
2018-11-28T06:17:31.902Z,717.74
2018-11-28T06:18:32.412Z,717.78
2018-11-28T06:19:32.823Z,717.76
2018-11-28T06:20:33.283Z,717.74
2018-11-28T06:21:33.746Z,717.74
2018-11-28T06:22:34.207Z,717.78
2018-11-28T06:23:34.670Z,717.78
2018-11-28T06:24:35.129Z,717.77
2018-11-28T06:25:35.598Z,717.73
2018-11-28T06:26:36.053Z,717.76
2018-11-28T06:27:36.518Z,717.78
2018-11-28T06:28:36.977Z,717.79
2018-11-28T06:29:37.439Z,717.76
2018-11-28T06:30:37.901Z,717.79
2018-11-28T06:31:38.361Z,717.78
2018-11-28T06:32:38.822Z,717.84
2018-11-28T06:33:39.285Z,717.82
2018-11-28T06:34:39.748Z,717.89
2018-11-28T06:35:40.208Z,717.84
2018-11-28T06:36:40.669Z,717.79
2018-11-28T06:37:41.133Z,717.82
2018-11-28T06:38:41.594Z,717.85
2018-11-28T06:39:42.054Z,717.82
2018-11-28T06:40:42.518Z,717.91
2018-11-28T06:41:42.977Z,717.90
2018-11-28T06:42:43.443Z,717.94
2018-11-28T06:43:43.901Z,717.98
2018-11-28T06:44:44.361Z,717.92
2018-11-28T06:45:44.825Z,717.92
2018-11-28T06:46:45.312Z,718.00
2018-11-28T06:47:45.746Z,717.99
2018-11-28T06:48:46.210Z,718.03
2018-11-28T06:49:46.698Z,717.98
2018-11-28T06:50:47.189Z,717.98
2018-11-28T06:51:47.594Z,718.03
2018-11-28T06:52:48.064Z,718.06
2018-11-28T06:53:48.517Z,718.07
2018-11-28T06:54:48.978Z,718.07
2018-11-28T06:55:49.498Z,718.03
2018-11-28T06:56:49.902Z,718.07
2018-11-28T06:57:50.363Z,718.14
2018-11-28T06:58:50.824Z,718.08
2018-11-28T06:59:51.300Z,718.13
2018-11-28T07:00:51.751Z,718.08
2018-11-28T07:01:52.211Z,718.15
2018-11-28T07:02:52.670Z,718.13
2018-11-28T07:03:53.137Z,718.12
2018-11-28T07:04:53.595Z,718.18
2018-11-28T07:05:54.056Z,718.14
2018-11-28T07:06:54.523Z,718.12
2018-11-28T07:07:54.979Z,718.13
2018-11-28T07:08:55.445Z,718.22
2018-11-28T07:09:55.905Z,718.25
2018-11-28T07:10:56.368Z,718.22
2018-11-28T07:11:56.827Z,718.29
2018-11-28T07:12:57.296Z,718.27
2018-11-28T07:13:57.753Z,718.31
2018-11-28T07:14:58.214Z,718.31
2018-11-28T07:15:58.674Z,718.34
2018-11-28T07:16:59.139Z,718.33
2018-11-28T07:17:59.601Z,718.36
2018-11-28T07:19:00.066Z,718.36
2018-11-28T07:20:00.526Z,718.40
2018-11-28T07:21:00.989Z,718.37
2018-11-28T07:22:01.451Z,718.44
2018-11-28T07:23:01.912Z,718.45
2018-11-28T07:24:02.371Z,718.40
2018-11-28T07:25:02.837Z,718.42
2018-11-28T07:26:03.297Z,718.40
2018-11-28T07:27:03.759Z,718.40
2018-11-28T07:28:04.223Z,718.38
2018-11-28T07:29:04.686Z,718.44
2018-11-28T07:30:05.153Z,718.41
2018-11-28T07:31:05.609Z,718.37
2018-11-28T07:32:06.072Z,718.38
2018-11-28T07:33:06.537Z,718.41
2018-11-28T07:34:06.996Z,718.46
2018-11-28T07:35:07.462Z,718.51
2018-11-28T07:36:07.923Z,718.49
2018-11-28T07:37:08.382Z,718.51
2018-11-28T07:38:08.846Z,718.52
2018-11-28T07:39:09.309Z,718.43
2018-11-28T07:40:09.770Z,718.47
2018-11-28T07:41:10.234Z,718.50
2018-11-28T07:42:10.696Z,718.54
2018-11-28T07:43:11.160Z,718.49
2018-11-28T07:44:11.623Z,718.50
2018-11-28T07:45:12.099Z,718.50
2018-11-28T07:46:12.550Z,718.61
2018-11-28T07:47:13.011Z,718.52
2018-11-28T07:48:13.475Z,718.59
2018-11-28T07:49:13.938Z,718.58
2018-11-28T07:50:14.401Z,718.61
2018-11-28T07:51:14.863Z,718.58
2018-11-28T07:52:15.326Z,718.62
2018-11-28T07:53:15.833Z,718.62
2018-11-28T07:54:16.304Z,718.56
2018-11-28T07:55:16.715Z,718.65
2018-11-28T07:56:17.180Z,718.67
2018-11-28T07:57:17.645Z,718.63
2018-11-28T07:58:18.105Z,718.67
2018-11-28T07:59:18.570Z,718.68
2018-11-28T08:00:19.029Z,718.70
2018-11-28T08:01:19.495Z,718.66
2018-11-28T08:02:19.959Z,718.68
2018-11-28T08:03:20.422Z,718.68
2018-11-28T08:04:21.134Z,718.67
2018-11-28T08:05:21.350Z,718.63
2018-11-28T08:06:21.811Z,718.66
2018-11-28T08:07:22.274Z,718.66
2018-11-28T08:08:23.415Z,718.66
2018-11-28T08:09:23.205Z,718.68
2018-11-28T08:10:23.669Z,718.60
2018-11-28T08:11:24.131Z,718.62
2018-11-28T08:12:24.593Z,718.66
2018-11-28T08:13:26.364Z,718.64
2018-11-28T08:14:25.520Z,718.67
2018-11-28T08:15:25.985Z,718.65
2018-11-28T08:16:26.448Z,718.61
2018-11-28T08:17:26.913Z,718.70
2018-11-28T08:18:27.380Z,718.70
2018-11-28T08:19:27.841Z,718.74
2018-11-28T08:20:28.306Z,718.74
2018-11-28T08:21:28.771Z,718.71
2018-11-28T08:22:29.234Z,718.67
2018-11-28T08:23:29.700Z,718.70
2018-11-28T08:24:30.165Z,718.75
2018-11-28T08:25:30.625Z,718.81
2018-11-28T08:26:31.089Z,718.76
2018-11-28T08:27:31.557Z,718.78
2018-11-28T08:28:32.016Z,718.75
2018-11-28T08:29:32.481Z,718.84
2018-11-28T08:30:32.952Z,718.81
2018-11-28T08:31:33.413Z,718.83
2018-11-28T08:32:33.880Z,718.87
2018-11-28T08:33:34.340Z,718.84
2018-11-28T08:34:34.807Z,718.81
2018-11-28T08:35:35.269Z,718.81
2018-11-28T08:36:35.734Z,718.83
2018-11-28T08:37:36.197Z,718.85
2018-11-28T08:38:36.662Z,718.88
2018-11-28T08:39:37.127Z,718.84
2018-11-28T08:40:37.593Z,718.88
2018-11-28T08:41:38.056Z,718.87
2018-11-28T08:42:38.551Z,718.85
2018-11-28T08:43:38.990Z,718.86
2018-11-28T08:44:39.452Z,718.92
2018-11-28T08:45:39.916Z,718.93
2018-11-28T08:46:40.381Z,718.90
2018-11-28T08:47:40.846Z,718.91
2018-11-28T08:48:41.311Z,718.95
2018-11-28T08:49:41.776Z,718.97
2018-11-28T08:50:42.241Z,719.00
2018-11-28T08:51:42.706Z,718.95
2018-11-28T08:52:43.195Z,718.96
2018-11-28T08:53:43.637Z,718.93
2018-11-28T08:54:44.107Z,718.97
2018-11-28T08:55:44.569Z,718.95
2018-11-28T08:56:45.034Z,719.04
2018-11-28T08:57:45.497Z,719.06
2018-11-28T08:58:45.963Z,719.06
2018-11-28T08:59:46.431Z,719.08
2018-11-28T09:00:46.894Z,719.06
2018-11-28T09:01:47.360Z,719.05
2018-11-28T09:02:47.856Z,719.04
2018-11-28T09:03:48.289Z,719.05
2018-11-28T09:04:48.756Z,719.11
2018-11-28T09:05:49.221Z,719.15
2018-11-28T09:06:49.690Z,719.09
2018-11-28T09:07:50.155Z,719.17
2018-11-28T09:08:50.618Z,719.15
2018-11-28T09:09:51.086Z,719.13
2018-11-28T09:10:51.551Z,719.22
2018-11-28T09:11:52.019Z,719.14
2018-11-28T09:12:52.483Z,719.20
2018-11-28T09:13:52.948Z,719.24
2018-11-28T09:14:53.414Z,719.25
2018-11-28T09:15:53.884Z,719.27
2018-11-28T09:16:54.346Z,719.27
2018-11-28T09:17:54.820Z,719.27
2018-11-28T09:18:55.278Z,719.34
2018-11-28T09:19:55.745Z,719.29
2018-11-28T09:20:56.212Z,719.28
2018-11-28T09:21:56.684Z,719.29
2018-11-28T09:22:57.144Z,719.30
2018-11-28T09:23:57.612Z,719.31
2018-11-28T09:24:58.076Z,719.31
2018-11-28T09:25:58.542Z,719.35
2018-11-28T09:26:59.011Z,719.36
2018-11-28T09:27:59.475Z,719.43
2018-11-28T09:28:59.940Z,719.46
2018-11-28T09:30:00.419Z,719.42
2018-11-28T09:31:00.874Z,719.36
2018-11-28T09:32:01.344Z,719.41
2018-11-28T09:33:01.805Z,719.45
2018-11-28T09:34:02.275Z,719.42
2018-11-28T09:35:02.742Z,719.46
2018-11-28T09:36:03.209Z,719.49
2018-11-28T09:37:03.672Z,719.49
2018-11-28T09:38:04.141Z,719.53
2018-11-28T09:39:04.659Z,719.55
2018-11-28T09:40:05.075Z,719.57
2018-11-28T09:41:05.543Z,719.57
2018-11-28T09:42:06.008Z,719.57
2018-11-28T09:43:06.476Z,719.59
2018-11-28T09:44:06.942Z,719.54
2018-11-28T09:45:07.408Z,719.59
2018-11-28T09:46:07.878Z,719.62
2018-11-28T09:47:08.345Z,719.66
2018-11-28T09:48:08.812Z,719.65
2018-11-28T09:49:09.277Z,719.65
2018-11-28T09:50:09.746Z,719.67
2018-11-28T09:51:10.271Z,719.64
2018-11-28T09:52:10.680Z,719.68
2018-11-28T09:53:11.146Z,719.68
2018-11-28T09:54:11.614Z,719.65
2018-11-28T09:55:12.084Z,719.68
2018-11-28T09:56:12.553Z,719.59
2018-11-28T09:57:13.017Z,719.63
2018-11-28T09:58:13.488Z,719.67
2018-11-28T09:59:13.952Z,719.64
2018-11-28T10:00:14.422Z,719.59
2018-11-28T10:01:14.887Z,719.58
2018-11-28T10:02:15.357Z,719.57
2018-11-28T10:03:15.846Z,719.56
2018-11-28T10:04:16.291Z,719.63
2018-11-28T10:05:16.760Z,719.63
2018-11-28T10:06:17.227Z,719.61
2018-11-28T10:07:17.697Z,719.63
2018-11-28T10:08:18.163Z,719.61
2018-11-28T10:09:18.680Z,719.58
2018-11-28T10:10:19.097Z,719.61
2018-11-28T10:11:19.567Z,719.62
2018-11-28T10:12:20.037Z,719.62
2018-11-28T10:13:20.504Z,719.64
2018-11-28T10:14:20.974Z,719.67
2018-11-28T10:15:21.439Z,719.63
2018-11-28T10:16:21.909Z,719.62
2018-11-28T10:17:22.379Z,719.59
2018-11-28T10:18:22.845Z,719.67
2018-11-28T10:19:23.363Z,719.57
2018-11-28T10:20:23.780Z,719.62
2018-11-28T10:21:24.249Z,719.64
2018-11-28T10:22:24.717Z,719.69
2018-11-28T10:23:25.188Z,719.67
2018-11-28T10:24:25.657Z,719.64
2018-11-28T10:25:26.122Z,719.62
2018-11-28T10:26:26.590Z,719.62
2018-11-28T10:27:27.068Z,719.60
2018-11-28T10:28:27.528Z,719.61
2018-11-28T10:29:27.996Z,719.54
2018-11-28T10:30:29.112Z,719.62
2018-11-28T10:31:28.939Z,719.53
2018-11-28T10:32:29.405Z,719.59
2018-11-28T10:33:29.876Z,719.56
2018-11-28T10:34:30.342Z,719.59
2018-11-28T10:35:30.813Z,719.59
2018-11-28T10:36:31.281Z,719.55
2018-11-28T10:37:31.749Z,719.60
2018-11-28T10:38:32.218Z,719.63
2018-11-28T10:39:32.691Z,719.59
2018-11-28T10:40:33.157Z,719.61
2018-11-28T10:41:33.631Z,719.61
2018-11-28T10:42:34.094Z,719.66
2018-11-28T10:43:34.565Z,719.63
2018-11-28T10:44:35.035Z,719.64
2018-11-28T10:45:35.505Z,719.67
2018-11-28T10:46:35.973Z,719.70
2018-11-28T10:47:36.449Z,719.68
2018-11-28T10:48:36.913Z,719.71
2018-11-28T10:49:37.382Z,719.70
2018-11-28T10:50:37.856Z,719.69
2018-11-28T10:51:38.323Z,719.72
2018-11-28T10:52:38.793Z,719.72
2018-11-28T10:53:39.259Z,719.77
2018-11-28T10:54:39.731Z,719.79
2018-11-28T10:55:40.201Z,719.80
2018-11-28T10:56:40.673Z,719.73
2018-11-28T10:57:41.140Z,719.80
2018-11-28T10:58:41.614Z,719.80
2018-11-28T10:59:42.082Z,719.83
2018-11-28T11:00:42.550Z,719.81
2018-11-28T11:01:43.021Z,719.87
2018-11-28T11:02:43.493Z,719.82
2018-11-28T11:03:43.960Z,719.83
2018-11-28T11:04:45.075Z,719.81
2018-11-28T11:05:44.900Z,719.84
2018-11-28T11:06:45.376Z,719.83
2018-11-28T11:07:45.842Z,719.87
2018-11-28T11:08:46.314Z,719.81
2018-11-28T11:09:46.784Z,719.84
2018-11-28T11:10:47.254Z,719.86
2018-11-28T11:11:47.772Z,719.84
2018-11-28T11:12:48.196Z,719.88
2018-11-28T11:13:48.666Z,719.91
2018-11-28T11:14:49.135Z,719.93
2018-11-28T11:15:49.609Z,719.91
2018-11-28T11:16:50.078Z,719.90
2018-11-28T11:17:50.548Z,719.94
2018-11-28T11:18:51.018Z,719.89
2018-11-28T11:19:51.492Z,719.91
2018-11-28T11:20:51.963Z,719.90
2018-11-28T11:21:52.433Z,719.89
2018-11-28T11:22:52.903Z,719.95
2018-11-28T11:23:53.374Z,719.90
2018-11-28T11:24:53.847Z,719.93
2018-11-28T11:25:54.323Z,719.90
2018-11-28T11:26:54.789Z,719.92
2018-11-28T11:27:55.259Z,719.94
2018-11-28T11:28:55.730Z,719.85
2018-11-28T11:29:56.215Z,719.88
2018-11-28T11:30:56.672Z,719.90
2018-11-28T11:31:57.143Z,719.91
2018-11-28T11:32:57.614Z,719.91
2018-11-28T11:33:58.086Z,719.92
2018-11-28T11:34:58.556Z,719.91
2018-11-28T11:35:59.031Z,719.93
2018-11-28T11:36:59.501Z,719.89
2018-11-28T11:37:59.971Z,719.93
2018-11-28T11:39:00.444Z,719.93
2018-11-28T11:40:00.916Z,719.97
2018-11-28T11:41:01.387Z,719.98
2018-11-28T11:42:01.861Z,719.97
2018-11-28T11:43:02.330Z,719.98
2018-11-28T11:44:02.802Z,720.02
2018-11-28T11:45:03.276Z,719.99
2018-11-28T11:46:03.746Z,719.99
2018-11-28T11:47:04.218Z,720.02
2018-11-28T11:48:04.692Z,720.00
2018-11-28T11:49:05.167Z,720.00
2018-11-28T11:50:06.040Z,720.00
2018-11-28T11:51:06.108Z,719.98
2018-11-28T11:52:06.580Z,719.99
2018-11-28T11:53:07.111Z,720.01
2018-11-28T11:54:07.522Z,719.98
2018-11-28T11:55:07.995Z,720.02
2018-11-28T11:56:08.468Z,720.05
2018-11-28T11:57:08.940Z,720.04
2018-11-28T11:58:09.417Z,720.07
2018-11-28T11:59:09.885Z,720.05
2018-11-28T12:00:10.360Z,720.01
2018-11-28T12:01:10.832Z,720.05
2018-11-28T12:02:11.310Z,720.01
2018-11-28T12:03:11.776Z,720.02
2018-11-28T12:04:12.248Z,720.05
2018-11-28T12:05:12.722Z,720.03
2018-11-28T12:06:13.193Z,720.02
2018-11-28T12:07:13.669Z,719.94
2018-11-28T12:08:14.136Z,720.00
2018-11-28T12:09:14.613Z,719.99
2018-11-28T12:10:15.082Z,719.96
2018-11-28T12:11:15.556Z,720.00
2018-11-28T12:12:16.024Z,720.00
2018-11-28T12:13:16.497Z,719.97
2018-11-28T12:14:16.968Z,719.94
2018-11-28T12:15:17.441Z,719.90
2018-11-28T12:16:21.518Z,719.91
2018-11-28T12:17:18.382Z,719.89
2018-11-28T12:18:18.851Z,719.95
2018-11-28T12:19:19.323Z,719.92
2018-11-28T12:20:19.796Z,719.99
2018-11-28T12:21:20.263Z,719.96
2018-11-28T12:22:20.733Z,719.95
2018-11-28T12:23:21.203Z,719.95
2018-11-28T12:24:21.672Z,719.94
2018-11-28T12:25:22.292Z,719.91
2018-11-28T12:26:22.615Z,719.94
2018-11-28T12:27:23.082Z,719.90
2018-11-28T12:28:23.547Z,719.98
2018-11-28T12:29:24.015Z,719.91
2018-11-28T12:30:24.485Z,719.90
2018-11-28T12:31:24.955Z,719.96
2018-11-28T12:32:25.423Z,719.97
2018-11-28T12:33:25.891Z,719.98
2018-11-28T12:34:26.357Z,720.00